sensor_id;sensor_type;location;lat;lon;timestamp;pressure;altitude;pressure_sealevel;temperature;humidity
81545;BME280;70990;50.618;7.346;2024-03-17T00:00:26;98939.78;;;6.28;86.41
81545;BME280;70990;50.618;7.346;2024-03-17T00:02:51;98931.44;;;6.21;85.64
81545;BME280;70990;50.618;7.346;2024-03-17T00:05:17;98937.97;;;6.36;84.63
81545;BME280;70990;50.618;7.346;2024-03-17T00:07:42;98939.31;;;6.23;84.70
81545;BME280;70990;50.618;7.346;2024-03-17T00:10:08;98928.69;;;6.21;84.59
81545;BME280;70990;50.618;7.346;2024-03-17T00:12:34;98933.28;;;6.36;83.88
81545;BME280;70990;50.618;7.346;2024-03-17T00:14:59;98918.94;;;6.24;84.57
81545;BME280;70990;50.618;7.346;2024-03-17T00:17:25;98932.84;;;6.34;83.57
81545;BME280;70990;50.618;7.346;2024-03-17T00:19:50;98917.66;;;6.40;83.11
81545;BME280;70990;50.618;7.346;2024-03-17T00:22:16;98919.75;;;6.24;84.79
81545;BME280;70990;50.618;7.346;2024-03-17T00:24:44;98915.53;;;6.07;86.71
81545;BME280;70990;50.618;7.346;2024-03-17T00:27:10;98913.63;;;5.89;87.11
81545;BME280;70990;50.618;7.346;2024-03-17T00:29:35;98919.78;;;5.63;89.73
81545;BME280;70990;50.618;7.346;2024-03-17T00:32:01;98922.25;;;5.49;93.65
81545;BME280;70990;50.618;7.346;2024-03-17T00:34:27;98913.41;;;5.36;94.83
81545;BME280;70990;50.618;7.346;2024-03-17T00:36:52;98920.72;;;5.13;95.79
81545;BME280;70990;50.618;7.346;2024-03-17T00:39:18;98920.38;;;5.34;95.02
81545;BME280;70990;50.618;7.346;2024-03-17T00:41:43;98919.44;;;5.26;94.50
81545;BME280;70990;50.618;7.346;2024-03-17T00:44:09;98910.22;;;5.34;94.74
81545;BME280;70990;50.618;7.346;2024-03-17T00:46:35;98910.94;;;5.31;94.34
81545;BME280;70990;50.618;7.346;2024-03-17T00:49:00;98907.63;;;5.22;95.93
81545;BME280;70990;50.618;7.346;2024-03-17T00:51:26;98890.97;;;5.11;96.97
81545;BME280;70990;50.618;7.346;2024-03-17T00:53:52;98908.22;;;5.12;96.12
81545;BME280;70990;50.618;7.346;2024-03-17T00:56:17;98896.94;;;4.98;96.63
81545;BME280;70990;50.618;7.346;2024-03-17T00:58:43;98899.34;;;4.64;99.66
81545;BME280;70990;50.618;7.346;2024-03-17T01:01:08;98895.81;;;4.64;100.00
81545;BME280;70990;50.618;7.346;2024-03-17T01:03:34;98894.31;;;4.66;100.00
81545;BME280;70990;50.618;7.346;2024-03-17T01:05:59;98895.28;;;4.74;100.00
81545;BME280;70990;50.618;7.346;2024-03-17T01:08:28;98894.59;;;4.61;100.00
81545;BME280;70990;50.618;7.346;2024-03-17T01:10:54;98895.84;;;4.48;100.00
81545;BME280;70990;50.618;7.346;2024-03-17T01:13:19;98893.16;;;4.67;99.39
81545;BME280;70990;50.618;7.346;2024-03-17T01:15:45;98891.13;;;4.64;98.63
81545;BME280;70990;50.618;7.346;2024-03-17T01:18:10;98881.28;;;4.79;97.20
81545;BME280;70990;50.618;7.346;2024-03-17T01:20:37;98885.88;;;4.75;94.71
81545;BME280;70990;50.618;7.346;2024-03-17T01:23:03;98883.81;;;4.68;94.47
81545;BME280;70990;50.618;7.346;2024-03-17T01:25:29;98884.50;;;4.65;94.24
81545;BME280;70990;50.618;7.346;2024-03-17T01:27:55;98884.22;;;4.70;93.58
81545;BME280;70990;50.618;7.346;2024-03-17T01:30:21;98879.41;;;4.83;92.85
81545;BME280;70990;50.618;7.346;2024-03-17T01:32:46;98871.63;;;4.66;93.63
81545;BME280;70990;50.618;7.346;2024-03-17T01:35:12;98866.22;;;4.69;94.05
81545;BME280;70990;50.618;7.346;2024-03-17T01:37:38;98867.44;;;4.72;95.41
81545;BME280;70990;50.618;7.346;2024-03-17T01:40:05;98867.47;;;4.56;97.22
81545;BME280;70990;50.618;7.346;2024-03-17T01:42:30;98866.34;;;4.57;97.67
81545;BME280;70990;50.618;7.346;2024-03-17T01:44:58;98854.84;;;4.67;97.68
81545;BME280;70990;50.618;7.346;2024-03-17T01:47:25;98855.84;;;4.59;98.88
81545;BME280;70990;50.618;7.346;2024-03-17T01:49:51;98844.22;;;4.46;99.19
81545;BME280;70990;50.618;7.346;2024-03-17T01:52:19;98855.72;;;4.71;99.73
81545;BME280;70990;50.618;7.346;2024-03-17T01:54:46;98849.63;;;4.62;99.51
81545;BME280;70990;50.618;7.346;2024-03-17T01:57:12;98840.28;;;4.63;100.00
81545;BME280;70990;50.618;7.346;2024-03-17T01:59:41;98832.56;;;4.50;100.00
81545;BME280;70990;50.618;7.346;2024-03-17T02:02:07;98840.53;;;4.39;100.00
81545;BME280;70990;50.618;7.346;2024-03-17T02:04:32;98837.94;;;4.46;100.00
81545;BME280;70990;50.618;7.346;2024-03-17T02:06:58;98837.88;;;4.42;100.00
81545;BME280;70990;50.618;7.346;2024-03-17T02:09:23;98830.31;;;4.36;100.00
81545;BME280;70990;50.618;7.346;2024-03-17T02:11:49;98837.44;;;4.40;100.00
81545;BME280;70990;50.618;7.346;2024-03-17T02:14:15;98837.50;;;4.44;100.00
81545;BME280;70990;50.618;7.346;2024-03-17T02:16:41;98826.69;;;4.32;100.00
81545;BME280;70990;50.618;7.346;2024-03-17T02:19:09;98830.31;;;4.36;100.00
81545;BME280;70990;50.618;7.346;2024-03-17T02:21:35;98828.78;;;4.38;100.00
81545;BME280;70990;50.618;7.346;2024-03-17T02:24:00;98835.50;;;4.41;100.00
81545;BME280;70990;50.618;7.346;2024-03-17T02:26:27;98832.47;;;4.46;100.00
81545;BME280;70990;50.618;7.346;2024-03-17T02:28:52;98830.47;;;4.43;100.00
81545;BME280;70990;50.618;7.346;2024-03-17T02:31:18;98828.31;;;4.52;100.00
81545;BME280;70990;50.618;7.346;2024-03-17T02:33:44;98836.06;;;4.50;100.00
81545;BME280;70990;50.618;7.346;2024-03-17T02:36:12;98833.50;;;4.57;100.00
81545;BME280;70990;50.618;7.346;2024-03-17T02:38:39;98836.69;;;4.59;100.00
81545;BME280;70990;50.618;7.346;2024-03-17T02:41:05;98829.56;;;4.55;100.00
81545;BME280;70990;50.618;7.346;2024-03-17T02:43:33;98840.41;;;4.51;100.00
81545;BME280;70990;50.618;7.346;2024-03-17T02:45:59;98831.81;;;4.33;100.00
81545;BME280;70990;50.618;7.346;2024-03-17T02:48:25;98830.72;;;4.38;100.00
81545;BME280;70990;50.618;7.346;2024-03-17T02:50:50;98837.38;;;4.37;100.00
81545;BME280;70990;50.618;7.346;2024-03-17T02:53:16;98839.94;;;4.30;100.00
81545;BME280;70990;50.618;7.346;2024-03-17T02:55:42;98839.06;;;4.61;100.00
81545;BME280;70990;50.618;7.346;2024-03-17T02:58:07;98834.38;;;4.61;100.00
81545;BME280;70990;50.618;7.346;2024-03-17T03:00:33;98841.19;;;4.52;100.00
81545;BME280;70990;50.618;7.346;2024-03-17T03:02:59;98824.72;;;4.48;100.00
81545;BME280;70990;50.618;7.346;2024-03-17T03:05:24;98828.09;;;4.26;100.00
81545;BME280;70990;50.618;7.346;2024-03-17T03:07:50;98838.88;;;4.19;100.00
81545;BME280;70990;50.618;7.346;2024-03-17T03:10:16;98836.41;;;4.14;100.00
81545;BME280;70990;50.618;7.346;2024-03-17T03:12:41;98844.09;;;4.24;100.00
81545;BME280;70990;50.618;7.346;2024-03-17T03:15:07;98828.38;;;4.21;100.00
81545;BME280;70990;50.618;7.346;2024-03-17T03:17:32;98830.44;;;4.24;100.00
81545;BME280;70990;50.618;7.346;2024-03-17T03:19:58;98827.06;;;4.15;100.00
81545;BME280;70990;50.618;7.346;2024-03-17T03:22:24;98830.09;;;4.10;100.00
81545;BME280;70990;50.618;7.346;2024-03-17T03:24:52;98827.91;;;3.99;100.00
81545;BME280;70990;50.618;7.346;2024-03-17T03:27:17;98827.00;;;3.95;100.00
81545;BME280;70990;50.618;7.346;2024-03-17T03:29:43;98833.78;;;4.01;100.00
81545;BME280;70990;50.618;7.346;2024-03-17T03:32:08;98836.25;;;4.06;100.00
81545;BME280;70990;50.618;7.346;2024-03-17T03:34:34;98831.34;;;3.96;100.00
81545;BME280;70990;50.618;7.346;2024-03-17T03:36:59;98818.31;;;3.74;100.00
81545;BME280;70990;50.618;7.346;2024-03-17T03:39:25;98833.53;;;3.91;100.00
81545;BME280;70990;50.618;7.346;2024-03-17T03:41:50;98829.56;;;3.88;100.00
81545;BME280;70990;50.618;7.346;2024-03-17T03:44:16;98830.44;;;3.77;100.00
81545;BME280;70990;50.618;7.346;2024-03-17T03:46:41;98826.47;;;3.90;100.00
81545;BME280;70990;50.618;7.346;2024-03-17T03:49:07;98823.88;;;4.13;100.00
81545;BME280;70990;50.618;7.346;2024-03-17T03:51:33;98824.69;;;4.13;99.20
81545;BME280;70990;50.618;7.346;2024-03-17T03:53:59;98824.94;;;4.24;98.46
81545;BME280;70990;50.618;7.346;2024-03-17T03:56:24;98817.97;;;4.26;97.52
81545;BME280;70990;50.618;7.346;2024-03-17T03:58:50;98816.06;;;4.11;97.51
81545;BME280;70990;50.618;7.346;2024-03-17T04:01:16;98817.84;;;4.03;97.98
81545;BME280;70990;50.618;7.346;2024-03-17T04:03:45;98815.31;;;3.79;99.86
81545;BME280;70990;50.618;7.346;2024-03-17T04:06:11;98813.53;;;3.71;100.00
81545;BME280;70990;50.618;7.346;2024-03-17T04:08:38;98817.41;;;3.54;100.00
81545;BME280;70990;50.618;7.346;2024-03-17T04:11:03;98806.00;;;3.21;100.00
81545;BME280;70990;50.618;7.346;2024-03-17T04:13:29;98821.19;;;3.06;100.00
81545;BME280;70990;50.618;7.346;2024-03-17T04:15:56;98829.84;;;3.08;100.00
81545;BME280;70990;50.618;7.346;2024-03-17T04:18:26;98823.50;;;3.04;100.00
81545;BME280;70990;50.618;7.346;2024-03-17T04:20:53;98812.91;;;3.03;100.00
81545;BME280;70990;50.618;7.346;2024-03-17T04:23:22;98812.13;;;3.02;100.00
81545;BME280;70990;50.618;7.346;2024-03-17T04:25:49;98814.50;;;3.04;100.00
81545;BME280;70990;50.618;7.346;2024-03-17T04:28:15;98811.06;;;3.07;100.00
81545;BME280;70990;50.618;7.346;2024-03-17T04:30:42;98814.09;;;3.17;100.00
81545;BME280;70990;50.618;7.346;2024-03-17T04:33:09;98794.72;;;3.22;100.00
81545;BME280;70990;50.618;7.346;2024-03-17T04:35:38;98810.16;;;3.31;100.00
81545;BME280;70990;50.618;7.346;2024-03-17T04:38:05;98819.78;;;3.40;100.00
81545;BME280;70990;50.618;7.346;2024-03-17T04:40:30;98800.13;;;3.35;100.00
81545;BME280;70990;50.618;7.346;2024-03-17T04:42:56;98810.50;;;3.45;100.00
81545;BME280;70990;50.618;7.346;2024-03-17T04:45:21;98810.50;;;3.45;100.00
81545;BME280;70990;50.618;7.346;2024-03-17T04:47:47;98816.88;;;3.49;100.00
81545;BME280;70990;50.618;7.346;2024-03-17T04:50:13;98794.22;;;3.33;100.00
81545;BME280;70990;50.618;7.346;2024-03-17T04:52:39;98800.09;;;3.19;100.00
81545;BME280;70990;50.618;7.346;2024-03-17T04:55:04;98801.59;;;3.32;100.00
81545;BME280;70990;50.618;7.346;2024-03-17T04:57:30;98797.03;;;3.36;100.00
81545;BME280;70990;50.618;7.346;2024-03-17T04:59:55;98797.38;;;3.35;100.00
81545;BME280;70990;50.618;7.346;2024-03-17T05:02:21;98795.34;;;3.32;100.00
81545;BME280;70990;50.618;7.346;2024-03-17T05:04:47;98798.25;;;3.23;100.00
81545;BME280;70990;50.618;7.346;2024-03-17T05:07:12;98793.47;;;3.20;100.00
81545;BME280;70990;50.618;7.346;2024-03-17T05:09:38;98792.88;;;3.11;100.00
81545;BME280;70990;50.618;7.346;2024-03-17T05:12:04;98788.22;;;3.11;100.00
81545;BME280;70990;50.618;7.346;2024-03-17T05:14:30;98788.69;;;3.01;100.00
81545;BME280;70990;50.618;7.346;2024-03-17T05:16:55;98785.66;;;3.18;100.00
81545;BME280;70990;50.618;7.346;2024-03-17T05:19:21;98780.69;;;3.08;100.00
81545;BME280;70990;50.618;7.346;2024-03-17T05:21:46;98775.81;;;2.86;100.00
81545;BME280;70990;50.618;7.346;2024-03-17T05:24:12;98787.50;;;2.59;100.00
81545;BME280;70990;50.618;7.346;2024-03-17T05:26:37;98794.16;;;2.33;100.00
81545;BME280;70990;50.618;7.346;2024-03-17T05:29:03;98791.94;;;2.11;100.00
81545;BME280;70990;50.618;7.346;2024-03-17T05:31:28;98796.69;;;2.14;100.00
81545;BME280;70990;50.618;7.346;2024-03-17T05:33:54;98792.63;;;2.08;100.00
81545;BME280;70990;50.618;7.346;2024-03-17T05:36:19;98800.13;;;2.11;100.00
81545;BME280;70990;50.618;7.346;2024-03-17T05:38:45;98799.91;;;2.04;100.00
81545;BME280;70990;50.618;7.346;2024-03-17T05:41:11;98801.59;;;1.96;100.00
81545;BME280;70990;50.618;7.346;2024-03-17T05:43:38;98799.91;;;1.80;100.00
81545;BME280;70990;50.618;7.346;2024-03-17T05:46:09;98810.59;;;1.73;100.00
81545;BME280;70990;50.618;7.346;2024-03-17T05:48:36;98809.88;;;1.51;100.00
81545;BME280;70990;50.618;7.346;2024-03-17T05:51:02;98813.72;;;1.50;100.00
81545;BME280;70990;50.618;7.346;2024-03-17T05:53:28;98801.03;;;1.54;100.00
81545;BME280;70990;50.618;7.346;2024-03-17T05:55:54;98812.19;;;1.74;100.00
81545;BME280;70990;50.618;7.346;2024-03-17T05:58:19;98800.91;;;1.75;100.00
81545;BME280;70990;50.618;7.346;2024-03-17T06:00:45;98816.25;;;1.92;100.00
81545;BME280;70990;50.618;7.346;2024-03-17T06:03:11;98818.41;;;1.98;100.00
81545;BME280;70990;50.618;7.346;2024-03-17T06:05:38;98812.84;;;1.95;100.00
81545;BME280;70990;50.618;7.346;2024-03-17T06:08:05;98819.22;;;2.11;100.00
81545;BME280;70990;50.618;7.346;2024-03-17T06:10:35;98809.78;;;1.96;100.00
81545;BME280;70990;50.618;7.346;2024-03-17T06:13:01;98805.94;;;1.85;100.00
81545;BME280;70990;50.618;7.346;2024-03-17T06:15:27;98813.78;;;1.87;100.00
81545;BME280;70990;50.618;7.346;2024-03-17T06:17:53;98814.91;;;1.86;100.00
81545;BME280;70990;50.618;7.346;2024-03-17T06:20:25;98810.47;;;2.06;100.00
81545;BME280;70990;50.618;7.346;2024-03-17T06:22:51;98813.28;;;2.21;100.00
81545;BME280;70990;50.618;7.346;2024-03-17T06:25:17;98803.66;;;2.12;100.00
81545;BME280;70990;50.618;7.346;2024-03-17T06:27:43;98802.59;;;2.28;100.00
81545;BME280;70990;50.618;7.346;2024-03-17T06:30:12;98798.50;;;2.34;100.00
81545;BME280;70990;50.618;7.346;2024-03-17T06:32:38;98786.69;;;2.30;100.00
81545;BME280;70990;50.618;7.346;2024-03-17T06:35:04;98796.56;;;2.35;100.00
81545;BME280;70990;50.618;7.346;2024-03-17T06:37:30;98781.84;;;2.12;100.00
81545;BME280;70990;50.618;7.346;2024-03-17T06:39:55;98784.56;;;2.24;100.00
81545;BME280;70990;50.618;7.346;2024-03-17T06:42:21;98790.88;;;2.28;100.00
81545;BME280;70990;50.618;7.346;2024-03-17T06:44:46;98785.75;;;2.38;100.00
81545;BME280;70990;50.618;7.346;2024-03-17T06:47:12;98786.75;;;2.46;100.00
81545;BME280;70990;50.618;7.346;2024-03-17T06:49:37;98787.84;;;2.29;100.00
81545;BME280;70990;50.618;7.346;2024-03-17T06:52:03;98786.28;;;2.44;100.00
81545;BME280;70990;50.618;7.346;2024-03-17T06:54:29;98784.75;;;2.71;100.00
81545;BME280;70990;50.618;7.346;2024-03-17T06:56:54;98788.41;;;2.91;100.00
81545;BME280;70990;50.618;7.346;2024-03-17T06:59:20;98784.00;;;2.86;100.00
81545;BME280;70990;50.618;7.346;2024-03-17T07:01:45;98781.22;;;2.98;100.00
81545;BME280;70990;50.618;7.346;2024-03-17T07:04:11;98781.09;;;3.22;100.00
81545;BME280;70990;50.618;7.346;2024-03-17T07:06:37;98776.25;;;3.47;100.00
81545;BME280;70990;50.618;7.346;2024-03-17T07:09:02;98782.16;;;3.49;100.00
81545;BME280;70990;50.618;7.346;2024-03-17T07:11:28;98776.06;;;3.72;100.00
81545;BME280;70990;50.618;7.346;2024-03-17T07:13:54;98771.25;;;4.00;100.00
81545;BME280;70990;50.618;7.346;2024-03-17T07:16:20;98771.34;;;4.03;100.00
81545;BME280;70990;50.618;7.346;2024-03-17T07:18:46;98765.44;;;4.01;100.00
81545;BME280;70990;50.618;7.346;2024-03-17T07:21:11;98771.34;;;4.03;100.00
81545;BME280;70990;50.618;7.346;2024-03-17T07:23:37;98769.13;;;4.09;100.00
81545;BME280;70990;50.618;7.346;2024-03-17T07:26:03;98770.25;;;4.24;100.00
81545;BME280;70990;50.618;7.346;2024-03-17T07:28:29;98767.44;;;4.39;100.00
81545;BME280;70990;50.618;7.346;2024-03-17T07:30:56;98765.47;;;4.56;100.00
81545;BME280;70990;50.618;7.346;2024-03-17T07:33:22;98765.22;;;4.83;100.00
81545;BME280;70990;50.618;7.346;2024-03-17T07:35:53;98770.06;;;4.90;100.00
81545;BME280;70990;50.618;7.346;2024-03-17T07:38:19;98761.38;;;5.07;100.00
81545;BME280;70990;50.618;7.346;2024-03-17T07:40:54;98760.69;;;5.33;100.00
81545;BME280;70990;50.618;7.346;2024-03-17T07:43:20;98759.84;;;5.29;99.85
81545;BME280;70990;50.618;7.346;2024-03-17T07:45:46;98764.00;;;5.68;100.00
81545;BME280;70990;50.618;7.346;2024-03-17T07:48:11;98768.88;;;5.79;100.00
81545;BME280;70990;50.618;7.346;2024-03-17T07:50:37;98774.19;;;5.91;100.00
81545;BME280;70990;50.618;7.346;2024-03-17T07:53:02;98774.25;;;5.94;100.00
81545;BME280;70990;50.618;7.346;2024-03-17T07:55:28;98771.56;;;6.24;100.00
81545;BME280;70990;50.618;7.346;2024-03-17T07:57:53;98778.97;;;6.50;99.29
81545;BME280;70990;50.618;7.346;2024-03-17T08:00:19;98776.78;;;6.63;97.71
81545;BME280;70990;50.618;7.346;2024-03-17T08:02:45;98773.41;;;6.76;98.06
81545;BME280;70990;50.618;7.346;2024-03-17T08:05:10;98770.63;;;7.06;97.53
81545;BME280;70990;50.618;7.346;2024-03-17T08:07:36;98774.59;;;7.12;96.56
81545;BME280;70990;50.618;7.346;2024-03-17T08:10:01;98778.91;;;7.10;96.27
81545;BME280;70990;50.618;7.346;2024-03-17T08:12:30;98784.72;;;6.68;94.29
81545;BME280;70990;50.618;7.346;2024-03-17T08:14:55;98793.91;;;6.82;95.32
81545;BME280;70990;50.618;7.346;2024-03-17T08:17:21;98793.56;;;6.58;95.81
81545;BME280;70990;50.618;7.346;2024-03-17T08:19:47;98795.75;;;6.75;94.84
81545;BME280;70990;50.618;7.346;2024-03-17T08:22:13;98794.44;;;6.62;94.11
81545;BME280;70990;50.618;7.346;2024-03-17T08:24:38;98791.94;;;6.83;94.46
81545;BME280;70990;50.618;7.346;2024-03-17T08:27:04;98792.38;;;6.85;94.31
81545;BME280;70990;50.618;7.346;2024-03-17T08:29:31;98786.31;;;6.72;93.29
81545;BME280;70990;50.618;7.346;2024-03-17T08:31:57;98769.25;;;6.86;92.70
81545;BME280;70990;50.618;7.346;2024-03-17T08:34:22;98777.34;;;7.09;93.86
81545;BME280;70990;50.618;7.346;2024-03-17T08:36:48;98777.44;;;7.19;93.42
81545;BME280;70990;50.618;7.346;2024-03-17T08:39:13;98777.31;;;7.46;90.78
81545;BME280;70990;50.618;7.346;2024-03-17T08:41:39;98772.03;;;7.67;91.48
81545;BME280;70990;50.618;7.346;2024-03-17T08:44:04;98770.81;;;8.16;91.72
81545;BME280;70990;50.618;7.346;2024-03-17T08:46:30;98763.31;;;8.13;88.45
81545;BME280;70990;50.618;7.346;2024-03-17T08:48:56;98757.19;;;8.33;89.46
81545;BME280;70990;50.618;7.346;2024-03-17T08:51:22;98763.69;;;8.76;88.33
81545;BME280;70990;50.618;7.346;2024-03-17T08:53:48;98755.84;;;8.09;87.20
81545;BME280;70990;50.618;7.346;2024-03-17T08:56:13;98746.97;;;8.34;88.50
81545;BME280;70990;50.618;7.346;2024-03-17T08:58:39;98747.31;;;8.29;87.88
81545;BME280;70990;50.618;7.346;2024-03-17T09:01:06;98749.59;;;8.20;86.75
81545;BME280;70990;50.618;7.346;2024-03-17T09:03:32;98743.69;;;8.18;87.37
81545;BME280;70990;50.618;7.346;2024-03-17T09:05:58;98747.09;;;8.00;87.88
81545;BME280;70990;50.618;7.346;2024-03-17T09:08:24;98733.44;;;8.15;86.62
81545;BME280;70990;50.618;7.346;2024-03-17T09:10:51;98732.81;;;8.39;86.47
81545;BME280;70990;50.618;7.346;2024-03-17T09:13:24;98720.03;;;8.78;85.78
81545;BME280;70990;50.618;7.346;2024-03-17T09:15:58;98730.44;;;8.37;84.62
81545;BME280;70990;50.618;7.346;2024-03-17T09:18:23;98733.69;;;8.57;84.17
81545;BME280;70990;50.618;7.346;2024-03-17T09:21:06;98731.06;;;8.85;83.47
81545;BME280;70990;50.618;7.346;2024-03-17T09:23:32;98738.22;;;9.11;82.27
81545;BME280;70990;50.618;7.346;2024-03-17T09:26:05;98734.88;;;8.53;82.92
81545;BME280;70990;50.618;7.346;2024-03-17T09:28:32;98731.50;;;9.02;82.21
81545;BME280;70990;50.618;7.346;2024-03-17T09:30:58;98733.91;;;9.28;82.12
81545;BME280;70990;50.618;7.346;2024-03-17T09:33:25;98731.97;;;9.39;80.78
81545;BME280;70990;50.618;7.346;2024-03-17T09:38:23;98732.97;;;8.67;81.04
81545;BME280;70990;50.618;7.346;2024-03-17T09:40:49;98739.47;;;8.31;80.72
81545;BME280;70990;50.618;7.346;2024-03-17T09:43:15;98743.03;;;8.35;81.15
81545;BME280;70990;50.618;7.346;2024-03-17T09:45:41;98747.31;;;8.29;83.43
81545;BME280;70990;50.618;7.346;2024-03-17T09:48:07;98741.97;;;8.57;81.20
81545;BME280;70990;50.618;7.346;2024-03-17T09:50:39;98732.66;;;8.86;81.10
81545;BME280;70990;50.618;7.346;2024-03-17T09:53:05;98735.38;;;8.79;81.33
81545;BME280;70990;50.618;7.346;2024-03-17T09:55:30;98739.81;;;9.23;81.48
81545;BME280;70990;50.618;7.346;2024-03-17T09:57:56;98744.50;;;9.08;79.67
81545;BME280;70990;50.618;7.346;2024-03-17T10:00:22;98745.78;;;9.60;79.88
81545;BME280;70990;50.618;7.346;2024-03-17T10:02:48;98748.16;;;9.87;79.25
81545;BME280;70990;50.618;7.346;2024-03-17T10:05:24;98753.25;;;9.70;76.96
81545;BME280;70990;50.618;7.346;2024-03-17T10:07:51;98745.75;;;10.03;76.42
81545;BME280;70990;50.618;7.346;2024-03-17T10:10:18;98742.63;;;9.65;78.65
81545;BME280;70990;50.618;7.346;2024-03-17T10:12:49;98748.13;;;10.01;76.71
81545;BME280;70990;50.618;7.346;2024-03-17T10:15:15;98754.81;;;9.36;75.85
81545;BME280;70990;50.618;7.346;2024-03-17T10:17:40;98759.16;;;9.69;77.31
81545;BME280;70990;50.618;7.346;2024-03-17T10:22:57;98746.56;;;10.03;76.75
81545;BME280;70990;50.618;7.346;2024-03-17T10:25:22;98751.28;;;9.89;76.19
81545;BME280;70990;50.618;7.346;2024-03-17T10:27:48;98756.34;;;10.43;76.79
81545;BME280;70990;50.618;7.346;2024-03-17T10:30:18;98745.25;;;10.65;76.21
81545;BME280;70990;50.618;7.346;2024-03-17T10:32:44;98748.00;;;10.65;75.75
81545;BME280;70990;50.618;7.346;2024-03-17T10:35:26;98753.44;;;10.89;75.38
81545;BME280;70990;50.618;7.346;2024-03-17T10:37:59;98750.69;;;10.82;73.92
81545;BME280;70990;50.618;7.346;2024-03-17T10:40:27;98749.59;;;10.66;73.29
81545;BME280;70990;50.618;7.346;2024-03-17T10:42:53;98749.22;;;10.60;73.32
81545;BME280;70990;50.618;7.346;2024-03-17T10:45:18;98750.78;;;10.65;73.61
81545;BME280;70990;50.618;7.346;2024-03-17T10:47:47;98746.78;;;10.80;73.91
81545;BME280;70990;50.618;7.346;2024-03-17T10:50:31;98747.81;;;11.11;73.30
81545;BME280;70990;50.618;7.346;2024-03-17T10:53:02;98738.38;;;11.01;73.49
81545;BME280;70990;50.618;7.346;2024-03-17T10:55:32;98739.78;;;11.30;73.99
81545;BME280;70990;50.618;7.346;2024-03-17T10:58:03;98741.66;;;11.48;73.97
81545;BME280;70990;50.618;7.346;2024-03-17T11:00:29;98746.91;;;11.28;72.91
81545;BME280;70990;50.618;7.346;2024-03-17T11:02:55;98733.50;;;11.23;71.56
81545;BME280;70990;50.618;7.346;2024-03-17T11:05:24;98746.16;;;11.20;71.15
81545;BME280;70990;50.618;7.346;2024-03-17T11:07:52;98747.25;;;10.57;72.86
81545;BME280;70990;50.618;7.346;2024-03-17T11:10:19;98736.78;;;11.04;72.56
81545;BME280;70990;50.618;7.346;2024-03-17T11:12:53;98734.34;;;11.16;73.32
81545;BME280;70990;50.618;7.346;2024-03-17T11:17:45;98734.09;;;11.52;73.90
81545;BME280;70990;50.618;7.346;2024-03-17T11:20:21;98729.22;;;11.74;71.56
81545;BME280;70990;50.618;7.346;2024-03-17T11:22:49;98724.97;;;12.06;72.35
81545;BME280;70990;50.618;7.346;2024-03-17T11:27:53;98740.38;;;12.82;69.96
81545;BME280;70990;50.618;7.346;2024-03-17T11:38:58;98725.75;;;13.09;66.72
81545;BME280;70990;50.618;7.346;2024-03-17T11:46:54;98726.78;;;12.91;66.32
81545;BME280;70990;50.618;7.346;2024-03-17T11:49:25;98717.34;;;12.55;66.22
81545;BME280;70990;50.618;7.346;2024-03-17T11:51:51;98716.69;;;12.74;65.84
81545;BME280;70990;50.618;7.346;2024-03-17T11:54:20;98720.53;;;12.84;69.14
81545;BME280;70990;50.618;7.346;2024-03-17T11:56:48;98713.63;;;12.99;67.37
81545;BME280;70990;50.618;7.346;2024-03-17T11:59:14;98707.59;;;13.04;67.43
81545;BME280;70990;50.618;7.346;2024-03-17T12:01:40;98710.97;;;12.88;68.03
81545;BME280;70990;50.618;7.346;2024-03-17T12:04:07;98702.81;;;12.74;67.54
81545;BME280;70990;50.618;7.346;2024-03-17T12:06:32;98696.31;;;12.88;68.10
81545;BME280;70990;50.618;7.346;2024-03-17T12:09:10;98692.97;;;13.00;67.84
81545;BME280;70990;50.618;7.346;2024-03-17T12:11:36;98694.63;;;13.24;66.01
81545;BME280;70990;50.618;7.346;2024-03-17T12:14:19;98687.84;;;13.29;68.29
81545;BME280;70990;50.618;7.346;2024-03-17T12:16:52;98697.88;;;12.89;64.75
81545;BME280;70990;50.618;7.346;2024-03-17T12:19:18;98691.84;;;12.67;65.40
81545;BME280;70990;50.618;7.346;2024-03-17T12:21:45;98687.00;;;13.32;66.43
81545;BME280;70990;50.618;7.346;2024-03-17T12:24:16;98688.66;;;13.26;63.92
81545;BME280;70990;50.618;7.346;2024-03-17T12:26:43;98686.88;;;13.12;66.50
81545;BME280;70990;50.618;7.346;2024-03-17T12:29:28;98670.38;;;13.02;66.04
81545;BME280;70990;50.618;7.346;2024-03-17T12:31:55;98671.44;;;13.38;65.49
81545;BME280;70990;50.618;7.346;2024-03-17T12:34:28;98670.28;;;13.36;65.29
81545;BME280;70990;50.618;7.346;2024-03-17T12:36:55;98665.56;;;12.75;66.47
81545;BME280;70990;50.618;7.346;2024-03-17T12:39:22;98668.53;;;13.45;66.76
81545;BME280;70990;50.618;7.346;2024-03-17T12:42:07;98655.38;;;12.99;65.72
81545;BME280;70990;50.618;7.346;2024-03-17T12:47:02;98661.59;;;12.46;65.80
81545;BME280;70990;50.618;7.346;2024-03-17T12:49:34;98646.53;;;12.77;66.59
81545;BME280;70990;50.618;7.346;2024-03-17T12:52:01;98645.94;;;12.32;66.81
81545;BME280;70990;50.618;7.346;2024-03-17T12:54:27;98642.50;;;12.82;66.38
81545;BME280;70990;50.618;7.346;2024-03-17T12:57:04;98635.88;;;13.03;68.70
81545;BME280;70990;50.618;7.346;2024-03-17T12:59:38;98633.41;;;12.81;66.96
81545;BME280;70990;50.618;7.346;2024-03-17T13:02:10;98636.56;;;12.83;68.43
81545;BME280;70990;50.618;7.346;2024-03-17T13:04:37;98631.91;;;12.46;68.42
81545;BME280;70990;50.618;7.346;2024-03-17T13:07:09;98621.59;;;12.47;68.33
81545;BME280;70990;50.618;7.346;2024-03-17T13:09:35;98623.97;;;12.75;70.43
81545;BME280;70990;50.618;7.346;2024-03-17T13:12:01;98612.34;;;12.57;68.41
81545;BME280;70990;50.618;7.346;2024-03-17T13:14:26;98611.84;;;12.35;68.87
81545;BME280;70990;50.618;7.346;2024-03-17T13:16:52;98609.19;;;12.25;69.16
81545;BME280;70990;50.618;7.346;2024-03-17T13:19:18;98613.09;;;12.31;69.31
81545;BME280;70990;50.618;7.346;2024-03-17T13:21:44;98610.69;;;12.33;68.56
81545;BME280;70990;50.618;7.346;2024-03-17T13:24:11;98597.38;;;12.21;69.31
81545;BME280;70990;50.618;7.346;2024-03-17T13:26:36;98594.94;;;12.26;68.99
81545;BME280;70990;50.618;7.346;2024-03-17T13:29:02;98602.53;;;12.19;71.77